sensor_id;sensor_type;location;lat;lon;timestamp;temperature;humidity
69281;SHT31;56392;51.082;17.080;2022-10-23T00:03:08;11.38;89.88
69281;SHT31;56392;51.082;17.080;2022-10-23T00:08:12;11.38;90.17
69281;SHT31;56392;51.082;17.080;2022-10-23T00:13:15;11.31;90.25
69281;SHT31;56392;51.082;17.080;2022-10-23T00:18:17;11.27;90.29
69281;SHT31;56392;51.082;17.080;2022-10-23T00:23:22;11.21;90.15
69281;SHT31;56392;51.082;17.080;2022-10-23T00:28:25;11.12;89.97
69281;SHT31;56392;51.082;17.080;2022-10-23T00:33:28;11.15;90.60
69281;SHT31;56392;51.082;17.080;2022-10-23T00:38:32;11.12;90.22
69281;SHT31;56392;51.082;17.080;2022-10-23T00:43:59;11.08;90.60
69281;SHT31;56392;51.082;17.080;2022-10-23T00:49:03;10.98;90.53
69281;SHT31;56392;51.082;17.080;2022-10-23T00:54:08;10.96;90.53
69281;SHT31;56392;51.082;17.080;2022-10-23T00:59:14;10.90;90.42
69281;SHT31;56392;51.082;17.080;2022-10-23T01:04:17;10.80;90.49
69281;SHT31;56392;51.082;17.080;2022-10-23T01:09:27;10.73;90.60
69281;SHT31;56392;51.082;17.080;2022-10-23T01:14:36;10.70;90.47
69281;SHT31;56392;51.082;17.080;2022-10-23T01:19:48;10.61;90.09
69281;SHT31;56392;51.082;17.080;2022-10-23T01:24:56;10.50;89.81
69281;SHT31;56392;51.082;17.080;2022-10-23T01:30:04;10.42;89.80
69281;SHT31;56392;51.082;17.080;2022-10-23T01:35:11;10.29;90.58
69281;SHT31;56392;51.082;17.080;2022-10-23T01:40:28;10.19;90.79
69281;SHT31;56392;51.082;17.080;2022-10-23T01:45:38;10.06;90.87
69281;SHT31;56392;51.082;17.080;2022-10-23T01:50:42;10.09;90.71
69281;SHT31;56392;51.082;17.080;2022-10-23T01:55:46;10.08;90.25
69281;SHT31;56392;51.082;17.080;2022-10-23T02:00:54;9.95;89.88
69281;SHT31;56392;51.082;17.080;2022-10-23T02:05:58;9.88;89.86
69281;SHT31;56392;51.082;17.080;2022-10-23T02:11:06;9.84;89.87
69281;SHT31;56392;51.082;17.080;2022-10-23T02:16:17;9.81;89.84
69281;SHT31;56392;51.082;17.080;2022-10-23T02:21:31;9.78;89.83
69281;SHT31;56392;51.082;17.080;2022-10-23T02:26:38;9.74;89.84
69281;SHT31;56392;51.082;17.080;2022-10-23T02:31:42;9.70;89.81
69281;SHT31;56392;51.082;17.080;2022-10-23T02:36:45;9.65;89.74
69281;SHT31;56392;51.082;17.080;2022-10-23T02:41:51;9.57;89.77
69281;SHT31;56392;51.082;17.080;2022-10-23T02:47:08;9.52;89.79
69281;SHT31;56392;51.082;17.080;2022-10-23T02:52:14;9.55;89.92
69281;SHT31;56392;51.082;17.080;2022-10-23T02:57:23;9.64;90.17
69281;SHT31;56392;51.082;17.080;2022-10-23T03:02:34;9.74;90.31
69281;SHT31;56392;51.082;17.080;2022-10-23T03:07:38;9.86;90.37
69281;SHT31;56392;51.082;17.080;2022-10-23T03:12:42;9.94;90.29
69281;SHT31;56392;51.082;17.080;2022-10-23T03:17:46;9.98;90.28
69281;SHT31;56392;51.082;17.080;2022-10-23T03:22:49;9.98;90.11
69281;SHT31;56392;51.082;17.080;2022-10-23T03:27:51;9.98;90.17
69281;SHT31;56392;51.082;17.080;2022-10-23T03:32:55;9.96;90.12
69281;SHT31;56392;51.082;17.080;2022-10-23T03:37:58;9.92;90.17
69281;SHT31;56392;51.082;17.080;2022-10-23T03:43:01;9.94;90.35
69281;SHT31;56392;51.082;17.080;2022-10-23T03:48:05;10.05;90.41
69281;SHT31;56392;51.082;17.080;2022-10-23T03:53:08;10.05;90.29
69281;SHT31;56392;51.082;17.080;2022-10-23T03:58:11;10.03;90.13
69281;SHT31;56392;51.082;17.080;2022-10-23T04:03:15;10.05;90.08
69281;SHT31;56392;51.082;17.080;2022-10-23T04:08:18;10.01;90.07
69281;SHT31;56392;51.082;17.080;2022-10-23T04:13:20;9.99;90.10
69281;SHT31;56392;51.082;17.080;2022-10-23T04:18:24;9.99;89.79
69281;SHT31;56392;51.082;17.080;2022-10-23T04:23:27;9.84;89.81
69281;SHT31;56392;51.082;17.080;2022-10-23T04:28:29;9.85;90.01
69281;SHT31;56392;51.082;17.080;2022-10-23T04:33:33;9.79;90.00
69281;SHT31;56392;51.082;17.080;2022-10-23T04:38:36;9.74;89.94
69281;SHT31;56392;51.082;17.080;2022-10-23T04:43:39;9.70;89.85
69281;SHT31;56392;51.082;17.080;2022-10-23T04:48:43;9.61;89.66
69281;SHT31;56392;51.082;17.080;2022-10-23T04:53:46;9.54;89.52
69281;SHT31;56392;51.082;17.080;2022-10-23T04:58:48;9.44;89.47
69281;SHT31;56392;51.082;17.080;2022-10-23T05:03:54;9.40;89.38
69281;SHT31;56392;51.082;17.080;2022-10-23T05:08:57;9.31;89.38
69281;SHT31;56392;51.082;17.080;2022-10-23T05:14:01;9.27;89.39
69281;SHT31;56392;51.082;17.080;2022-10-23T05:19:06;9.23;89.44
69281;SHT31;56392;51.082;17.080;2022-10-23T05:24:10;9.22;89.46
69281;SHT31;56392;51.082;17.080;2022-10-23T05:29:13;9.22;89.55
69281;SHT31;56392;51.082;17.080;2022-10-23T05:34:19;9.23;89.54
69281;SHT31;56392;51.082;17.080;2022-10-23T05:39:24;9.23;89.50
69281;SHT31;56392;51.082;17.080;2022-10-23T05:44:26;9.28;89.65
69281;SHT31;56392;51.082;17.080;2022-10-23T05:49:30;9.36;89.71
69281;SHT31;56392;51.082;17.080;2022-10-23T05:54:33;9.41;89.70
69281;SHT31;56392;51.082;17.080;2022-10-23T05:59:36;9.52;89.86
69281;SHT31;56392;51.082;17.080;2022-10-23T06:04:40;9.65;89.88
69281;SHT31;56392;51.082;17.080;2022-10-23T06:09:43;9.79;90.03
69281;SHT31;56392;51.082;17.080;2022-10-23T06:14:46;9.95;90.06
69281;SHT31;56392;51.082;17.080;2022-10-23T06:19:50;10.06;89.92
69281;SHT31;56392;51.082;17.080;2022-10-23T06:24:52;10.20;89.93
69281;SHT31;56392;51.082;17.080;2022-10-23T06:29:55;10.30;89.57
69281;SHT31;56392;51.082;17.080;2022-10-23T06:34:59;10.47;89.19
69281;SHT31;56392;51.082;17.080;2022-10-23T06:40:02;10.64;89.20
69281;SHT31;56392;51.082;17.080;2022-10-23T06:45:06;10.84;89.05
69281;SHT31;56392;51.082;17.080;2022-10-23T06:50:10;11.08;89.12
69281;SHT31;56392;51.082;17.080;2022-10-23T06:55:13;11.27;88.92
69281;SHT31;56392;51.082;17.080;2022-10-23T07:00:16;11.40;88.64
69281;SHT31;56392;51.082;17.080;2022-10-23T07:05:21;11.61;88.32
69281;SHT31;56392;51.082;17.080;2022-10-23T07:10:23;11.82;88.18
69281;SHT31;56392;51.082;17.080;2022-10-23T07:15:26;12.03;87.83
69281;SHT31;56392;51.082;17.080;2022-10-23T07:20:30;12.31;87.61
69281;SHT31;56392;51.082;17.080;2022-10-23T07:25:33;12.57;87.33
69281;SHT31;56392;51.082;17.080;2022-10-23T07:30:36;12.85;86.84
69281;SHT31;56392;51.082;17.080;2022-10-23T07:35:40;13.16;86.68
69281;SHT31;56392;51.082;17.080;2022-10-23T07:40:43;13.47;86.32
69281;SHT31;56392;51.082;17.080;2022-10-23T07:45:47;13.84;85.47
69281;SHT31;56392;51.082;17.080;2022-10-23T07:50:51;14.26;84.26
69281;SHT31;56392;51.082;17.080;2022-10-23T07:55:55;14.62;83.30
69281;SHT31;56392;51.082;17.080;2022-10-23T08:00:59;14.87;82.42
69281;SHT31;56392;51.082;17.080;2022-10-23T08:06:04;15.07;81.97
69281;SHT31;56392;51.082;17.080;2022-10-23T08:11:09;15.26;81.02
69281;SHT31;56392;51.082;17.080;2022-10-23T08:16:13;15.50;80.16
69281;SHT31;56392;51.082;17.080;2022-10-23T08:21:18;15.55;79.56
69281;SHT31;56392;51.082;17.080;2022-10-23T08:26:22;15.63;79.55
69281;SHT31;56392;51.082;17.080;2022-10-23T08:31:26;15.55;79.36
69281;SHT31;56392;51.082;17.080;2022-10-23T08:36:30;15.71;79.29
69281;SHT31;56392;51.082;17.080;2022-10-23T08:41:35;15.85;79.71
69281;SHT31;56392;51.082;17.080;2022-10-23T08:46:41;16.05;79.04
69281;SHT31;56392;51.082;17.080;2022-10-23T08:51:49;16.59;78.04
69281;SHT31;56392;51.082;17.080;2022-10-23T08:56:57;17.22;76.44
69281;SHT31;56392;51.082;17.080;2022-10-23T09:02:08;17.35;75.33
69281;SHT31;56392;51.082;17.080;2022-10-23T09:07:20;17.46;75.70
69281;SHT31;56392;51.082;17.080;2022-10-23T09:12:28;17.47;75.65
69281;SHT31;56392;51.082;17.080;2022-10-23T09:17:33;17.52;75.64
69281;SHT31;56392;51.082;17.080;2022-10-23T09:22:40;17.49;75.38
69281;SHT31;56392;51.082;17.080;2022-10-23T09:27:45;17.57;75.17
69281;SHT31;56392;51.082;17.080;2022-10-23T09:32:48;17.60;75.19
69281;SHT31;56392;51.082;17.080;2022-10-23T09:37:52;17.65;75.43
69281;SHT31;56392;51.082;17.080;2022-10-23T09:42:58;17.70;74.11
69281;SHT31;56392;51.082;17.080;2022-10-23T09:48:11;17.66;73.97
69281;SHT31;56392;51.082;17.080;2022-10-23T09:53:24;17.72;74.32
69281;SHT31;56392;51.082;17.080;2022-10-23T09:58:35;18.18;73.16
69281;SHT31;56392;51.082;17.080;2022-10-23T10:03:48;18.24;72.81
69281;SHT31;56392;51.082;17.080;2022-10-23T10:08:54;18.59;72.24
69281;SHT31;56392;51.082;17.080;2022-10-23T10:19:35;19.40;68.94
69281;SHT31;56392;51.082;17.080;2022-10-23T10:24:46;19.16;67.45
69281;SHT31;56392;51.082;17.080;2022-10-23T10:29:58;19.10;68.57
69281;SHT31;56392;51.082;17.080;2022-10-23T10:35:18;18.86;68.94
69281;SHT31;56392;51.082;17.080;2022-10-23T10:40:27;18.76;69.14
69281;SHT31;56392;51.082;17.080;2022-10-23T10:45:32;18.72;69.35
69281;SHT31;56392;51.082;17.080;2022-10-23T10:50:43;18.88;69.79
69281;SHT31;56392;51.082;17.080;2022-10-23T10:55:51;19.10;69.00
69281;SHT31;56392;51.082;17.080;2022-10-23T11:00:55;18.93;68.51
69281;SHT31;56392;51.082;17.080;2022-10-23T11:06:01;18.89;69.84
69281;SHT31;56392;51.082;17.080;2022-10-23T11:11:11;19.03;69.52
69281;SHT31;56392;51.082;17.080;2022-10-23T11:16:19;18.93;69.38
69281;SHT31;56392;51.082;17.080;2022-10-23T11:21:28;19.00;69.32
69281;SHT31;56392;51.082;17.080;2022-10-23T11:26:42;19.10;69.14
69281;SHT31;56392;51.082;17.080;2022-10-23T11:31:56;19.19;68.66
69281;SHT31;56392;51.082;17.080;2022-10-23T11:37:03;19.34;68.38
69281;SHT31;56392;51.082;17.080;2022-10-23T11:42:14;19.43;68.23
69281;SHT31;56392;51.082;17.080;2022-10-23T11:47:33;19.37;68.15
69281;SHT31;56392;51.082;17.080;2022-10-23T11:52:39;19.31;68.19
69281;SHT31;56392;51.082;17.080;2022-10-23T11:57:44;19.23;68.18
69281;SHT31;56392;51.082;17.080;2022-10-23T12:02:50;19.16;68.58
69281;SHT31;56392;51.082;17.080;2022-10-23T12:07:55;19.10;68.51
69281;SHT31;56392;51.082;17.080;2022-10-23T12:13:02;19.09;68.54
69281;SHT31;56392;51.082;17.080;2022-10-23T12:18:07;19.03;68.51
69281;SHT31;56392;51.082;17.080;2022-10-23T12:23:31;18.89;67.97
69281;SHT31;56392;51.082;17.080;2022-10-23T12:28:43;18.79;68.32
69281;SHT31;56392;51.082;17.080;2022-10-23T12:33:54;18.68;68.97
69281;SHT31;56392;51.082;17.080;2022-10-23T12:38:59;18.65;69.03
69281;SHT31;56392;51.082;17.080;2022-10-23T12:44:08;18.65;69.29
69281;SHT31;56392;51.082;17.080;2022-10-23T12:49:13;18.76;68.36
69281;SHT31;56392;51.082;17.080;2022-10-23T12:54:19;18.85;68.15
69281;SHT31;56392;51.082;17.080;2022-10-23T12:59:25;18.86;67.71
69281;SHT31;56392;51.082;17.080;2022-10-23T13:04:30;18.86;68.00
69281;SHT31;56392;51.082;17.080;2022-10-23T13:09:37;18.76;68.89
69281;SHT31;56392;51.082;17.080;2022-10-23T13:14:55;18.75;69.07
69281;SHT31;56392;51.082;17.080;2022-10-23T13:20:07;18.69;68.89
69281;SHT31;56392;51.082;17.080;2022-10-23T13:25:24;18.62;68.70
69281;SHT31;56392;51.082;17.080;2022-10-23T13:30:31;18.51;69.22
69281;SHT31;56392;51.082;17.080;2022-10-23T13:35:34;18.41;69.57
69281;SHT31;56392;51.082;17.080;2022-10-23T13:40:37;18.25;70.20
69281;SHT31;56392;51.082;17.080;2022-10-23T13:45:41;18.14;70.40
69281;SHT31;56392;51.082;17.080;2022-10-23T13:50:44;18.10;70.21
69281;SHT31;56392;51.082;17.080;2022-10-23T13:55:49;18.03;70.31
69281;SHT31;56392;51.082;17.080;2022-10-23T14:00:54;17.94;70.41
69281;SHT31;56392;51.082;17.080;2022-10-23T14:05:57;17.83;71.26
69281;SHT31;56392;51.082;17.080;2022-10-23T14:11:00;17.72;71.69
69281;SHT31;56392;51.082;17.080;2022-10-23T14:16:06;17.67;72.07
69281;SHT31;56392;51.082;17.080;2022-10-23T14:21:12;17.66;71.97
69281;SHT31;56392;51.082;17.080;2022-10-23T14:26:18;17.60;72.11
69281;SHT31;56392;51.082;17.080;2022-10-23T14:31:23;17.45;73.48
69281;SHT31;56392;51.082;17.080;2022-10-23T14:36:27;17.21;74.92
69281;SHT31;56392;51.082;17.080;2022-10-23T14:41:29;16.96;76.25
69281;SHT31;56392;51.082;17.080;2022-10-23T14:46:33;16.71;77.21
69281;SHT31;56392;51.082;17.080;2022-10-23T14:51:38;16.50;77.88
69281;SHT31;56392;51.082;17.080;2022-10-23T14:56:41;16.27;78.55
69281;SHT31;56392;51.082;17.080;2022-10-23T15:01:45;16.09;79.15
69281;SHT31;56392;51.082;17.080;2022-10-23T15:06:48;16.09;78.25
69281;SHT31;56392;51.082;17.080;2022-10-23T15:11:51;15.93;78.82
69281;SHT31;56392;51.082;17.080;2022-10-23T15:16:55;15.75;79.60
69281;SHT31;56392;51.082;17.080;2022-10-23T15:21:58;15.61;80.27
69281;SHT31;56392;51.082;17.080;2022-10-23T15:27:00;15.44;80.68
69281;SHT31;56392;51.082;17.080;2022-10-23T15:32:05;15.26;81.20
69281;SHT31;56392;51.082;17.080;2022-10-23T15:37:10;15.08;81.57
69281;SHT31;56392;51.082;17.080;2022-10-23T15:42:13;15.21;81.26
69281;SHT31;56392;51.082;17.080;2022-10-23T15:47:17;15.17;81.21
69281;SHT31;56392;51.082;17.080;2022-10-23T15:52:19;15.16;81.44
69281;SHT31;56392;51.082;17.080;2022-10-23T15:57:23;15.21;81.14
69281;SHT31;56392;51.082;17.080;2022-10-23T16:02:30;15.07;80.96
69281;SHT31;56392;51.082;17.080;2022-10-23T16:07:32;14.90;81.47
69281;SHT31;56392;51.082;17.080;2022-10-23T16:12:35;14.93;81.90
69281;SHT31;56392;51.082;17.080;2022-10-23T16:17:39;14.96;81.71
69281;SHT31;56392;51.082;17.080;2022-10-23T16:22:42;14.86;81.74
69281;SHT31;56392;51.082;17.080;2022-10-23T16:27:45;14.65;81.86
69281;SHT31;56392;51.082;17.080;2022-10-23T16:32:50;14.50;82.26
69281;SHT31;56392;51.082;17.080;2022-10-23T16:37:53;14.29;82.40
69281;SHT31;56392;51.082;17.080;2022-10-23T16:42:56;14.12;82.91
69281;SHT31;56392;51.082;17.080;2022-10-23T16:48:00;14.11;83.41
69281;SHT31;56392;51.082;17.080;2022-10-23T16:53:03;14.22;83.40
69281;SHT31;56392;51.082;17.080;2022-10-23T16:58:06;14.18;83.21
69281;SHT31;56392;51.082;17.080;2022-10-23T17:03:10;14.02;83.12
69281;SHT31;56392;51.082;17.080;2022-10-23T17:08:13;13.91;83.20
69281;SHT31;56392;51.082;17.080;2022-10-23T17:13:16;13.75;83.36
69281;SHT31;56392;51.082;17.080;2022-10-23T17:18:20;13.90;84.29
69281;SHT31;56392;51.082;17.080;2022-10-23T17:23:23;13.92;83.88
69281;SHT31;56392;51.082;17.080;2022-10-23T17:28:26;13.81;83.75
69281;SHT31;56392;51.082;17.080;2022-10-23T17:33:30;13.67;83.74
69281;SHT31;56392;51.082;17.080;2022-10-23T17:38:34;13.59;84.50
69281;SHT31;56392;51.082;17.080;2022-10-23T17:43:37;13.51;84.26
69281;SHT31;56392;51.082;17.080;2022-10-23T17:48:42;13.40;84.31
69281;SHT31;56392;51.082;17.080;2022-10-23T17:53:46;13.27;84.23
69281;SHT31;56392;51.082;17.080;2022-10-23T17:58:50;13.20;84.66
69281;SHT31;56392;51.082;17.080;2022-10-23T18:03:56;13.29;85.14
69281;SHT31;56392;51.082;17.080;2022-10-23T18:09:01;13.40;85.46
69281;SHT31;56392;51.082;17.080;2022-10-23T18:14:04;13.46;84.91
69281;SHT31;56392;51.082;17.080;2022-10-23T18:19:09;13.46;84.67
69281;SHT31;56392;51.082;17.080;2022-10-23T18:24:13;13.43;84.71
69281;SHT31;56392;51.082;17.080;2022-10-23T18:29:16;13.39;84.76
69281;SHT31;56392;51.082;17.080;2022-10-23T18:34:22;13.40;84.62
69281;SHT31;56392;51.082;17.080;2022-10-23T18:39:26;13.37;84.61
69281;SHT31;56392;51.082;17.080;2022-10-23T18:44:29;13.26;84.85
69281;SHT31;56392;51.082;17.080;2022-10-23T18:49:33;13.24;85.33
69281;SHT31;56392;51.082;17.080;2022-10-23T18:54:35;13.37;84.78
69281;SHT31;56392;51.082;17.080;2022-10-23T18:59:38;13.35;84.73
69281;SHT31;56392;51.082;17.080;2022-10-23T19:04:42;13.35;84.55
69281;SHT31;56392;51.082;17.080;2022-10-23T19:09:45;13.33;84.44
69281;SHT31;56392;51.082;17.080;2022-10-23T19:14:47;13.35;84.27
69281;SHT31;56392;51.082;17.080;2022-10-23T19:19:53;13.20;84.78
69281;SHT31;56392;51.082;17.080;2022-10-23T19:25:03;13.16;84.65
69281;SHT31;56392;51.082;17.080;2022-10-23T19:30:11;13.19;84.57
69281;SHT31;56392;51.082;17.080;2022-10-23T19:35:18;13.20;84.45
69281;SHT31;56392;51.082;17.080;2022-10-23T19:40:21;13.26;84.26
69281;SHT31;56392;51.082;17.080;2022-10-23T19:45:26;13.26;84.06
69281;SHT31;56392;51.082;17.080;2022-10-23T19:50:30;13.26;83.99
69281;SHT31;56392;51.082;17.080;2022-10-23T19:55:33;13.19;84.00
69281;SHT31;56392;51.082;17.080;2022-10-23T20:00:36;13.20;83.80
69281;SHT31;56392;51.082;17.080;2022-10-23T20:05:44;13.19;83.88
69281;SHT31;56392;51.082;17.080;2022-10-23T20:10:47;13.05;84.38
69281;SHT31;56392;51.082;17.080;2022-10-23T20:15:50;13.03;84.34
69281;SHT31;56392;51.082;17.080;2022-10-23T20:20:54;13.03;84.25
69281;SHT31;56392;51.082;17.080;2022-10-23T20:26:03;13.06;84.18
69281;SHT31;56392;51.082;17.080;2022-10-23T20:31:07;12.98;84.21
69281;SHT31;56392;51.082;17.080;2022-10-23T20:36:22;13.00;84.05
69281;SHT31;56392;51.082;17.080;2022-10-23T20:41:25;13.06;83.83
69281;SHT31;56392;51.082;17.080;2022-10-23T20:46:29;13.05;83.84
69281;SHT31;56392;51.082;17.080;2022-10-23T20:51:34;12.92;83.99
69281;SHT31;56392;51.082;17.080;2022-10-23T20:56:38;12.89;84.03
69281;SHT31;56392;51.082;17.080;2022-10-23T21:01:42;12.88;84.00
69281;SHT31;56392;51.082;17.080;2022-10-23T21:06:49;12.87;84.10
69281;SHT31;56392;51.082;17.080;2022-10-23T21:11:52;12.92;83.98
69281;SHT31;56392;51.082;17.080;2022-10-23T21:16:54;12.91;83.79
69281;SHT31;56392;51.082;17.080;2022-10-23T21:21:58;12.91;83.67
69281;SHT31;56392;51.082;17.080;2022-10-23T21:27:01;12.87;83.81
69281;SHT31;56392;51.082;17.080;2022-10-23T21:32:04;12.77;84.02
69281;SHT31;56392;51.082;17.080;2022-10-23T21:37:08;12.69;84.10
69281;SHT31;56392;51.082;17.080;2022-10-23T21:42:12;12.52;85.17
69281;SHT31;56392;51.082;17.080;2022-10-23T21:47:14;12.54;85.10
69281;SHT31;56392;51.082;17.080;2022-10-23T21:52:18;12.55;84.98
69281;SHT31;56392;51.082;17.080;2022-10-23T21:57:21;12.52;85.11
69281;SHT31;56392;51.082;17.080;2022-10-23T22:02:24;12.40;85.56
69281;SHT31;56392;51.082;17.080;2022-10-23T22:07:28;12.36;85.94
69281;SHT31;56392;51.082;17.080;2022-10-23T22:12:32;12.34;85.98
69281;SHT31;56392;51.082;17.080;2022-10-23T22:17:34;12.31;86.01
69281;SHT31;56392;51.082;17.080;2022-10-23T22:22:38;12.30;86.21
69281;SHT31;56392;51.082;17.080;2022-10-23T22:27:41;12.34;86.23
69281;SHT31;56392;51.082;17.080;2022-10-23T22:32:44;12.16;87.31
69281;SHT31;56392;51.082;17.080;2022-10-23T22:37:48;12.26;86.57
69281;SHT31;56392;51.082;17.080;2022-10-23T22:42:50;12.21;86.80
69281;SHT31;56392;51.082;17.080;2022-10-23T22:47:53;12.07;87.80
69281;SHT31;56392;51.082;17.080;2022-10-23T22:52:57;12.07;87.78
69281;SHT31;56392;51.082;17.080;2022-10-23T22:57:59;12.10;87.74
69281;SHT31;56392;51.082;17.080;2022-10-23T23:03:02;12.20;87.19
69281;SHT31;56392;51.082;17.080;2022-10-23T23:08:06;12.21;87.19
69281;SHT31;56392;51.082;17.080;2022-10-23T23:13:09;12.21;87.12
69281;SHT31;56392;51.082;17.080;2022-10-23T23:18:12;12.26;86.95
69281;SHT31;56392;51.082;17.080;2022-10-23T23:23:16;12.23;87.04
69281;SHT31;56392;51.082;17.080;2022-10-23T23:28:20;12.26;86.97
69281;SHT31;56392;51.082;17.080;2022-10-23T23:33:22;12.30;86.81
69281;SHT31;56392;51.082;17.080;2022-10-23T23:38:26;12.34;86.55
69281;SHT31;56392;51.082;17.080;2022-10-23T23:43:29;12.33;86.58
69281;SHT31;56392;51.082;17.080;2022-10-23T23:48:32;12.31;86.65
69281;SHT31;56392;51.082;17.080;2022-10-23T23:53:36;12.28;86.61
69281;SHT31;56392;51.082;17.080;2022-10-23T23:58:39;12.26;86.70
